Time;durP1;ratioP1;P1;durP2;ratioP2;P2;SDS_P1;SDS_P2;PMS_P1;PMS_P2;Temp;Humidity;BMP_temperature;BMP_pressure;BME280_temperature;BME280_humidity;BME280_pressure;Samples;Min_cycle;Max_cycle;Signal;HPM_P1;HPM_P2
2022/09/13 00:01:15;;;;;;;6.17;5.77;;;20.40;99.50;;;;;;5013834;28;20490;-66
2022/09/13 00:03:41;;;;;;;6.20;5.80;;;20.40;98.70;;;;;;5013171;28;20281;-72
2022/09/13 00:06:15;;;;;;;6.33;5.93;;;20.40;98.90;;;;;;5013091;28;20655;-67
2022/09/13 00:08:42;;;;;;;7.00;6.50;;;20.40;99.20;;;;;;5012188;28;20741;-72
2022/09/13 00:11:18;;;;;;;6.20;5.80;;;20.40;99.40;;;;;;5013459;28;20431;-67
2022/09/13 00:13:44;;;;;;;6.87;6.47;;;20.40;99.30;;;;;;4991508;28;20521;-70
2022/09/13 00:16:12;;;;;;;6.70;6.20;;;20.40;98.90;;;;;;4994019;28;20403;-67
2022/09/13 00:18:38;;;;;;;7.47;6.70;;;20.40;99.20;;;;;;4993998;28;20434;-66
2022/09/13 00:21:06;;;;;;;8.10;6.10;;;20.40;99.40;;;;;;5009338;28;20465;-67
2022/09/13 00:23:32;;;;;;;6.47;6.07;;;20.30;98.80;;;;;;5013298;28;20470;-67
2022/09/13 00:26:11;;;;;;;5.97;5.50;;;20.30;98.60;;;;;;5012419;28;20924;-67
2022/09/13 00:28:38;;;;;;;5.83;5.53;;;20.30;99.00;;;;;;5011564;28;20433;-67
2022/09/13 00:31:06;;;;;;;6.13;5.73;;;20.20;98.90;;;;;;5012294;28;21091;-67
2022/09/13 00:33:32;;;;;;;5.63;5.33;;;20.20;98.70;;;;;;5013265;28;20422;-67
2022/09/13 00:36:01;;;;;;;7.00;6.60;;;20.10;97.30;;;;;;5017616;28;20461;-67
2022/09/13 00:38:27;;;;;;;6.57;6.17;;;20.10;98.00;;;;;;5000193;28;20458;-67
2022/09/13 00:40:53;;;;;;;6.93;6.30;;;20.00;98.20;;;;;;4992452;28;20958;-67
2022/09/13 00:43:38;;;;;;;5.90;5.50;;;20.10;97.90;;;;;;5006151;28;20257;-67
2022/09/13 00:46:05;;;;;;;6.60;6.07;;;20.10;98.30;;;;;;5011197;28;20782;-67
2022/09/13 00:48:33;;;;;;;6.17;5.67;;;20.10;99.90;;;;;;5011754;28;20828;-67
2022/09/13 00:51:01;;;;;;;5.90;5.37;;;20.10;99.90;;;;;;5012059;28;20463;-67
2022/09/13 00:53:33;;;;;;;6.40;6.00;;;20.00;97.80;;;;;;4962096;28;20814;-67
2022/09/13 00:56:08;;;;;;;6.00;5.70;;;20.10;99.00;;;;;;5012183;28;20417;-67
2022/09/13 00:58:51;;;;;;;5.43;5.13;;;20.10;99.20;;;;;;5012121;28;20448;-66
2022/09/13 01:01:18;;;;;;;5.80;5.40;;;20.10;99.40;;;;;;5012996;28;20406;-67
2022/09/13 01:03:46;;;;;;;5.73;5.33;;;20.20;99.20;;;;;;5011198;28;20445;-71
2022/09/13 01:06:17;;;;;;;5.73;5.33;;;20.20;98.80;;;;;;5012987;28;20433;-67
2022/09/13 01:08:48;;;;;;;7.20;6.70;;;20.20;99.90;;;;;;5010859;28;20564;-71
2022/09/13 01:11:29;;;;;;;6.10;5.80;;;20.30;99.90;;;;;;5006083;28;20438;-66
2022/09/13 01:13:56;;;;;;;6.30;5.90;;;20.30;99.90;;;;;;4992404;28;20759;-67
2022/09/13 01:16:22;;;;;;;7.40;6.90;;;20.30;99.90;;;;;;4993076;28;20456;-67
2022/09/13 01:18:47;;;;;;;6.50;5.90;;;20.30;99.90;;;;;;4992305;28;20418;-71
2022/09/13 01:21:32;;;;;;;7.07;6.57;;;20.30;99.90;;;;;;4992717;28;20426;-67
2022/09/13 01:24:23;;;;;;;6.87;6.40;;;20.40;99.90;;;;;;4991941;28;20235;-67
2022/09/13 01:27:23;;;;;;;7.13;6.53;;;20.30;99.90;;;;;;4969315;28;20454;-68
2022/09/13 01:30:12;;;;;;;6.33;5.83;;;20.30;99.90;;;;;;4992137;28;20395;-69
2022/09/13 01:32:56;;;;;;;6.20;5.83;;;20.30;99.90;;;;;;5005509;28;20430;-67
2022/09/13 01:36:15;;;;;;;5.90;5.50;;;20.30;99.90;;;;;;5012395;28;20476;-67
2022/09/13 01:39:06;;;;;;;5.50;5.20;;;20.30;99.90;;;;;;4932584;29;20476;-67
2022/09/13 01:41:41;;;;;;;6.07;5.67;;;20.30;99.90;;;;;;4991898;28;21004;-69
2022/09/13 01:44:24;;;;;;;6.07;5.57;;;20.30;99.90;;;;;;4991609;28;20458;-67
2022/09/13 01:47:03;;;;;;;5.53;5.23;;;20.30;99.90;;;;;;4991946;28;20826;-67
2022/09/13 01:49:42;;;;;;;6.13;5.83;;;20.30;99.90;;;;;;4992994;28;20410;-67
2022/09/13 01:52:37;;;;;;;5.97;5.57;;;20.30;99.90;;;;;;5004733;28;20543;-67
2022/09/13 01:55:06;;;;;;;5.43;5.03;;;20.20;99.90;;;;;;4997558;28;20495;-67
2022/09/13 01:57:35;;;;;;;6.37;5.97;;;20.20;99.90;;;;;;5016175;28;20418;-67
2022/09/13 02:00:11;;;;;;;6.20;5.80;;;20.20;99.90;;;;;;5015364;28;20418;-66
2022/09/13 02:02:56;;;;;;;6.77;5.70;;;20.20;99.90;;;;;;5015241;28;20526;-67
2022/09/13 02:05:36;;;;;;;5.80;5.50;;;20.20;99.90;;;;;;5016240;28;20512;-67
2022/09/13 02:08:27;;;;;;;6.73;6.20;;;20.10;99.90;;;;;;5015018;28;20414;-67
2022/09/13 02:11:02;;;;;;;5.53;5.20;;;20.10;99.90;;;;;;5012845;28;20421;-67
2022/09/13 02:13:34;;;;;;;6.07;5.63;;;20.10;99.90;;;;;;5015999;28;20402;-67
2022/09/13 02:16:15;;;;;;;6.23;5.90;;;20.10;99.90;;;;;;5014939;28;20754;-67
2022/09/13 02:18:46;;;;;;;5.47;5.10;;;20.10;99.90;;;;;;5014856;28;20398;-67
2022/09/13 02:21:17;;;;;;;6.20;5.70;;;20.10;99.90;;;;;;5014025;28;20406;-66
2022/09/13 02:23:50;;;;;;;5.40;4.90;;;20.00;99.90;;;;;;5014936;28;20484;-67
2022/09/13 02:26:19;;;;;;;5.60;5.30;;;20.00;99.90;;;;;;5014982;28;20441;-67
2022/09/13 02:28:53;;;;;;;5.40;5.07;;;20.00;99.90;;;;;;5015674;28;20421;-67
2022/09/13 02:31:27;;;;;;;6.00;5.60;;;20.00;99.90;;;;;;5015118;28;20422;-67
2022/09/13 02:33:57;;;;;;;5.73;5.30;;;20.00;99.90;;;;;;5014809;28;20414;-67
2022/09/13 02:36:28;;;;;;;6.33;5.93;;;19.90;99.90;;;;;;5007411;28;20454;-67
2022/09/13 02:39:01;;;;;;;5.70;5.20;;;19.90;99.90;;;;;;5014569;28;20496;-67
2022/09/13 02:41:27;;;;;;;5.87;5.30;;;19.90;99.90;;;;;;5015710;28;20409;-67
2022/09/13 02:44:03;;;;;;;5.93;5.40;;;19.90;99.90;;;;;;5011555;28;20503;-72
2022/09/13 02:47:00;;;;;;;5.63;5.33;;;19.90;99.90;;;;;;5015411;28;20167;-67
2022/09/13 02:49:33;;;;;;;5.73;5.33;;;19.90;99.90;;;;;;5015329;28;20425;-67
2022/09/13 02:52:22;;;;;;;6.23;5.60;;;19.90;99.90;;;;;;5014718;28;20509;-67
2022/09/13 02:55:14;;;;;;;6.37;5.87;;;19.90;99.90;;;;;;5014254;28;20509;-67
2022/09/13 02:57:53;;;;;;;5.93;5.57;;;20.00;99.90;;;;;;5015037;28;20412;-66
2022/09/13 03:00:19;;;;;;;6.43;6.00;;;19.90;99.90;;;;;;5012815;28;20922;-67
2022/09/13 03:02:45;;;;;;;6.30;5.90;;;20.00;99.90;;;;;;4996162;28;20421;-67
2022/09/13 03:05:11;;;;;;;5.67;5.37;;;20.00;99.90;;;;;;5013586;28;20487;-67
2022/09/13 03:07:36;;;;;;;6.43;5.93;;;20.00;99.90;;;;;;5014971;28;20501;-67
2022/09/13 03:10:10;;;;;;;6.90;6.40;;;20.00;99.90;;;;;;5012753;28;20180;-67
2022/09/13 03:12:41;;;;;;;6.77;6.37;;;20.10;99.90;;;;;;5000979;28;20188;-68
2022/09/13 03:15:34;;;;;;;6.90;6.50;;;20.10;99.90;;;;;;4994704;28;20453;-67
2022/09/13 03:18:00;;;;;;;7.03;6.57;;;20.10;99.90;;;;;;5009419;28;20437;-67
2022/09/13 03:20:46;;;;;;;6.47;5.97;;;20.10;99.90;;;;;;5013678;28;20795;-67
2022/09/13 03:23:26;;;;;;;5.97;5.57;;;20.10;99.90;;;;;;5011929;28;20194;-67
2022/09/13 03:26:24;;;;;;;6.13;5.73;;;20.20;99.90;;;;;;5014230;28;20448;-73
2022/09/13 03:29:36;;;;;;;5.47;5.07;;;20.20;99.90;;;;;;5014728;28;20433;-67
2022/09/13 03:32:07;;;;;;;6.10;5.70;;;20.20;99.90;;;;;;5012407;28;20952;-67
2022/09/13 03:34:51;;;;;;;8.03;7.10;;;20.30;99.90;;;;;;5014565;28;20446;-67
2022/09/13 03:37:24;;;;;;;7.70;7.10;;;20.30;99.90;;;;;;5013693;28;20452;-67
2022/09/13 03:40:01;;;;;;;7.30;6.90;;;20.30;99.90;;;;;;5014129;28;20773;-66
2022/09/13 03:42:30;;;;;;;6.20;5.70;;;20.30;99.90;;;;;;5013224;28;20442;-66
2022/09/13 03:44:58;;;;;;;6.40;5.90;;;20.30;99.90;;;;;;5012562;28;20503;-72
2022/09/13 03:47:29;;;;;;;8.50;8.10;;;20.30;99.90;;;;;;5014364;28;20917;-66
2022/09/13 03:49:56;;;;;;;5.90;5.17;;;20.30;99.90;;;;;;5012594;28;20819;-65
2022/09/13 03:52:22;;;;;;;6.10;5.70;;;20.30;99.90;;;;;;5014466;28;20409;-66
2022/09/13 03:54:48;;;;;;;5.60;5.17;;;20.30;99.90;;;;;;5014537;28;20418;-65
2022/09/13 03:57:21;;;;;;;6.40;6.03;;;20.30;99.90;;;;;;5009601;28;20497;-66
2022/09/13 03:59:50;;;;;;;6.63;6.13;;;20.40;99.90;;;;;;5014347;28;20175;-66
2022/09/13 04:02:17;;;;;;;4.47;4.17;;;20.40;99.90;;;;;;5002149;28;20957;-66
2022/09/13 04:04:44;;;;;;;5.27;4.47;;;20.40;99.90;;;;;;4994538;28;20832;-66
2022/09/13 04:07:11;;;;;;;4.47;4.07;;;20.40;99.90;;;;;;5008924;28;20776;-66
2022/09/13 04:09:38;;;;;;;8.77;6.70;;;20.40;99.90;;;;;;5012613;28;20418;-65
2022/09/13 04:12:04;;;;;;;4.73;4.47;;;20.40;99.90;;;;;;5011539;28;20428;-65
2022/09/13 04:14:30;;;;;;;5.37;5.07;;;20.40;99.90;;;;;;5013467;28;20418;-65
2022/09/13 04:16:56;;;;;;;7.80;7.30;;;20.40;99.90;;;;;;5013091;28;20410;-66
2022/09/13 04:19:23;;;;;;;5.10;4.80;;;20.40;99.90;;;;;;5013974;28;20175;-65
2022/09/13 04:21:54;;;;;;;7.60;7.20;;;20.40;99.90;;;;;;5011253;28;20422;-66
2022/09/13 04:24:24;;;;;;;7.27;6.63;;;20.40;99.90;;;;;;5012674;28;20497;-65
2022/09/13 04:26:52;;;;;;;5.17;4.87;;;20.40;99.90;;;;;;5013990;28;20402;-65
2022/09/13 04:29:18;;;;;;;7.13;6.73;;;20.40;99.90;;;;;;5013241;28;20468;-65
2022/09/13 04:31:44;;;;;;;5.70;5.27;;;20.30;99.90;;;;;;5013830;28;20767;-65
2022/09/13 04:34:10;;;;;;;5.57;5.03;;;20.30;99.90;;;;;;5008924;28;20441;-65
2022/09/13 04:36:36;;;;;;;5.73;5.33;;;20.30;99.90;;;;;;5013712;28;20458;-65
2022/09/13 04:39:02;;;;;;;5.90;5.50;;;20.30;99.90;;;;;;5013051;28;20257;-65
2022/09/13 04:41:28;;;;;;;6.27;5.93;;;20.30;99.90;;;;;;5011606;28;21032;-65
2022/09/13 04:43:54;;;;;;;9.30;8.60;;;20.30;99.90;;;;;;5012474;28;20501;-65
2022/09/13 04:46:20;;;;;;;10.00;9.40;;;20.30;99.90;;;;;;5009901;28;20287;-65
2022/09/13 04:48:50;;;;;;;7.90;7.40;;;20.30;99.90;;;;;;5012329;28;20183;-66
2022/09/13 04:51:16;;;;;;;5.43;5.03;;;20.30;99.90;;;;;;5011531;28;20573;-65
2022/09/13 04:53:43;;;;;;;8.90;8.23;;;20.30;99.90;;;;;;5013448;28;20420;-65
2022/09/13 04:56:09;;;;;;;7.17;6.57;;;20.30;99.90;;;;;;5011804;28;20422;-65
2022/09/13 04:58:35;;;;;;;8.77;8.20;;;20.30;99.90;;;;;;5012144;28;20418;-65
2022/09/13 05:01:05;;;;;;;7.10;6.57;;;20.30;99.90;;;;;;5011135;28;20452;-66
2022/09/13 05:03:32;;;;;;;7.13;6.53;;;20.30;99.90;;;;;;5006189;28;20511;-65
2022/09/13 05:06:12;;;;;;;10.80;9.73;;;20.30;99.90;;;;;;5012410;28;20445;-66
2022/09/13 05:08:38;;;;;;;8.17;7.57;;;20.20;99.90;;;;;;5012913;28;20401;-66
2022/09/13 05:11:05;;;;;;;7.47;6.77;;;20.10;99.90;;;;;;5010138;28;20936;-65
2022/09/13 05:13:32;;;;;;;7.77;6.97;;;20.10;99.90;;;;;;5011521;28;20187;-66
2022/09/13 05:16:04;;;;;;;8.80;7.90;;;20.10;99.90;;;;;;4997353;28;20768;-69
2022/09/13 05:18:32;;;;;;;7.97;6.80;;;20.10;99.90;;;;;;4993287;28;20462;-66
2022/09/13 05:20:59;;;;;;;9.83;9.10;;;20.20;99.90;;;;;;4999501;28;20421;-65
2022/09/13 05:23:26;;;;;;;8.60;7.90;;;20.20;99.90;;;;;;5011743;28;20526;-65
2022/09/13 05:26:01;;;;;;;7.17;6.63;;;20.10;99.90;;;;;;5003457;28;20442;-65
2022/09/13 05:28:28;;;;;;;9.20;8.50;;;20.10;99.90;;;;;;4991103;28;20440;-65
2022/09/13 05:30:57;;;;;;;6.93;6.43;;;20.00;99.90;;;;;;5009032;28;20429;-65
2022/09/13 05:33:24;;;;;;;9.30;8.70;;;20.00;99.90;;;;;;5012335;28;20425;-66
2022/09/13 05:35:50;;;;;;;7.90;7.27;;;20.10;99.90;;;;;;5009532;28;20469;-66
2022/09/13 05:38:15;;;;;;;6.90;6.30;;;20.20;99.90;;;;;;5012016;28;20513;-67
2022/09/13 05:40:41;;;;;;;7.77;7.10;;;20.40;99.90;;;;;;5002716;28;20850;-67
2022/09/13 05:43:08;;;;;;;10.73;6.47;;;20.60;99.90;;;;;;5006601;28;20542;-62
2022/09/13 05:45:33;;;;;;;6.47;5.97;;;20.80;99.90;;;;;;5012429;28;20426;-62
2022/09/13 05:47:59;;;;;;;7.00;6.50;;;20.90;99.90;;;;;;5011231;28;20179;-67
2022/09/13 05:50:25;;;;;;;6.93;6.43;;;20.90;99.90;;;;;;5012408;28;20261;-62
2022/09/13 05:52:54;;;;;;;6.57;6.07;;;20.80;99.90;;;;;;5012354;28;20190;-62
2022/09/13 05:55:20;;;;;;;7.33;6.50;;;20.70;99.90;;;;;;4994101;28;20278;-62
2022/09/13 05:57:47;;;;;;;6.80;6.20;;;20.70;99.90;;;;;;5012599;28;20406;-62
2022/09/13 06:00:13;;;;;;;7.33;6.70;;;20.60;99.90;;;;;;4999266;28;20411;-62
2022/09/13 06:02:40;;;;;;;6.80;6.40;;;20.50;99.90;;;;;;5012583;28;20410;-62
2022/09/13 06:05:09;;;;;;;6.40;5.90;;;20.50;99.90;;;;;;5003336;28;20973;-64
2022/09/13 06:07:35;;;;;;;6.60;6.07;;;20.50;99.90;;;;;;4993140;28;20826;-63
2022/09/13 06:10:03;;;;;;;6.70;6.20;;;20.40;99.90;;;;;;5006242;28;20468;-66
2022/09/13 06:12:29;;;;;;;8.60;7.90;;;20.40;99.90;;;;;;5011732;28;20445;-63
2022/09/13 06:14:55;;;;;;;5.80;5.40;;;20.40;99.90;;;;;;5012481;28;20453;-63
2022/09/13 06:17:21;;;;;;;8.80;8.30;;;20.40;99.90;;;;;;5011828;28;20430;-63
2022/09/13 06:19:46;;;;;;;5.60;5.10;;;20.40;99.90;;;;;;4994930;28;20654;-63
2022/09/13 06:22:12;;;;;;;8.57;8.07;;;20.40;99.90;;;;;;4994511;28;20182;-63
2022/09/13 06:24:38;;;;;;;7.17;6.67;;;20.40;99.90;;;;;;5012278;28;20571;-63
2022/09/13 06:27:04;;;;;;;6.93;5.80;;;20.40;99.90;;;;;;5011622;28;20194;-62
2022/09/13 06:29:30;;;;;;;5.40;5.00;;;20.40;99.90;;;;;;5012741;28;20178;-62
2022/09/13 06:31:56;;;;;;;6.97;6.47;;;20.40;99.90;;;;;;5012086;28;20496;-62
2022/09/13 06:34:22;;;;;;;6.30;5.90;;;20.50;99.90;;;;;;5011628;28;20205;-62
2022/09/13 06:36:48;;;;;;;7.50;6.90;;;20.40;99.90;;;;;;5012390;28;20480;-63
2022/09/13 06:39:14;;;;;;;7.63;7.13;;;20.50;99.90;;;;;;4996002;28;20180;-62
2022/09/13 06:41:40;;;;;;;6.30;5.80;;;20.50;99.90;;;;;;5014628;28;20410;-62
2022/09/13 06:44:05;;;;;;;9.83;9.03;;;20.40;99.90;;;;;;5011603;28;20670;-63
2022/09/13 06:46:33;;;;;;;7.73;7.10;;;20.50;99.90;;;;;;5008427;28;20194;-62
2022/09/13 06:49:01;;;;;;;5.50;5.10;;;20.50;99.90;;;;;;4987868;28;20180;-62
2022/09/13 06:51:28;;;;;;;6.57;5.90;;;20.50;99.90;;;;;;5014511;28;20469;-62
2022/09/13 06:53:55;;;;;;;6.63;6.00;;;20.50;99.90;;;;;;5015480;28;20491;-63
2022/09/13 06:56:26;;;;;;;7.90;7.10;;;20.50;99.90;;;;;;5009302;28;20480;-62
2022/09/13 06:58:55;;;;;;;7.83;7.33;;;20.50;99.90;;;;;;5015523;28;20401;-62
2022/09/13 07:01:23;;;;;;;10.10;7.40;;;20.50;99.90;;;;;;5012576;28;20445;-62
2022/09/13 07:04:01;;;;;;;5.20;4.80;;;20.60;99.90;;;;;;5009542;28;20469;-62
2022/09/13 07:06:29;;;;;;;5.53;5.10;;;20.60;99.90;;;;;;4999909;28;20438;-63
2022/09/13 07:08:57;;;;;;;5.03;4.63;;;20.60;99.90;;;;;;5015271;28;20421;-62
2022/09/13 07:11:24;;;;;;;5.93;5.53;;;20.60;99.90;;;;;;5012580;28;20441;-62
2022/09/13 07:13:56;;;;;;;6.23;5.73;;;20.60;99.90;;;;;;5014611;28;20453;-63
2022/09/13 07:16:25;;;;;;;6.60;6.20;;;20.70;99.90;;;;;;5014316;28;20429;-63
2022/09/13 07:19:00;;;;;;;11.17;7.33;;;20.70;99.90;;;;;;4995649;28;20419;-62
2022/09/13 07:21:27;;;;;;;9.70;8.97;;;20.70;99.90;;;;;;5005014;28;20560;-63
2022/09/13 07:23:55;;;;;;;7.63;7.13;;;20.70;99.90;;;;;;5014689;28;20453;-62
2022/09/13 07:26:21;;;;;;;5.43;5.03;;;20.80;99.90;;;;;;5014477;28;20416;-62
2022/09/13 07:28:51;;;;;;;7.00;6.50;;;20.80;99.90;;;;;;5015167;28;20414;-62
2022/09/13 07:31:19;;;;;;;7.63;6.90;;;20.90;99.90;;;;;;5014328;28;20422;-62
2022/09/13 07:33:51;;;;;;;5.97;5.57;;;20.90;99.90;;;;;;5014357;28;20512;-62
2022/09/13 07:36:17;;;;;;;8.77;6.27;;;21.00;99.90;;;;;;5014108;28;20489;-62
2022/09/13 07:38:47;;;;;;;5.73;5.33;;;21.00;99.90;;;;;;4992728;28;20478;-62
2022/09/13 07:41:15;;;;;;;6.30;5.90;;;21.10;99.90;;;;;;4994572;28;20176;-62
2022/09/13 07:43:41;;;;;;;6.47;5.97;;;21.10;99.90;;;;;;4994779;28;20454;-63
2022/09/13 07:46:09;;;;;;;6.40;6.00;;;21.20;99.90;;;;;;4994467;28;20473;-66
2022/09/13 07:48:38;;;;;;;7.00;6.23;;;21.20;99.90;;;;;;4994807;28;20788;-62
2022/09/13 07:51:15;;;;;;;6.70;6.20;;;21.20;99.90;;;;;;5000540;28;20422;-62
2022/09/13 07:53:42;;;;;;;6.10;5.80;;;21.30;99.90;;;;;;5003895;28;20998;-63
2022/09/13 07:56:10;;;;;;;7.63;5.70;;;21.30;99.90;;;;;;5012686;28;21009;-63
2022/09/13 07:58:37;;;;;;;6.23;5.73;;;21.30;99.90;;;;;;5013643;28;20434;-63
2022/09/13 08:01:15;;;;;;;9.23;8.63;;;21.40;99.90;;;;;;5013343;28;20457;-62
2022/09/13 08:03:41;;;;;;;6.43;5.63;;;21.40;99.90;;;;;;5012264;28;21024;-62
2022/09/13 08:06:08;;;;;;;8.97;8.40;;;21.50;99.90;;;;;;4998233;28;20435;-62
2022/09/13 08:08:35;;;;;;;7.13;6.73;;;21.60;99.90;;;;;;4993488;28;20410;-63
2022/09/13 08:11:04;;;;;;;8.23;7.73;;;21.60;99.90;;;;;;4993616;28;20427;-62
2022/09/13 08:13:31;;;;;;;8.30;7.80;;;21.60;99.90;;;;;;4993509;28;20945;-62
2022/09/13 08:16:01;;;;;;;8.80;8.20;;;21.70;99.90;;;;;;4994824;28;20413;-62
2022/09/13 08:18:27;;;;;;;6.40;5.90;;;21.70;99.90;;;;;;4993992;28;20391;-62
2022/09/13 08:20:57;;;;;;;6.00;5.60;;;21.80;99.90;;;;;;5011441;28;20429;-63
2022/09/13 08:23:23;;;;;;;5.83;5.20;;;21.80;99.90;;;;;;5013245;28;20481;-62
2022/09/13 08:25:48;;;;;;;5.50;5.00;;;21.80;99.90;;;;;;5013882;28;20563;-62
2022/09/13 08:28:16;;;;;;;5.97;5.57;;;21.90;99.90;;;;;;5013246;28;20501;-63
2022/09/13 08:30:42;;;;;;;6.93;6.20;;;21.90;99.90;;;;;;5013808;28;20216;-63
2022/09/13 08:33:10;;;;;;;4.87;4.57;;;22.00;99.90;;;;;;5013477;28;20409;-62
2022/09/13 08:35:36;;;;;;;8.17;7.70;;;22.00;99.90;;;;;;5013517;28;20488;-62
2022/09/13 08:38:03;;;;;;;6.13;5.63;;;22.00;99.90;;;;;;5013705;28;20430;-62
2022/09/13 08:40:48;;;;;;;6.30;5.90;;;22.10;99.90;;;;;;5013121;28;20689;-62
2022/09/13 08:43:19;;;;;;;5.07;4.77;;;22.10;99.90;;;;;;5013023;28;20723;-63
2022/09/13 08:46:00;;;;;;;6.00;5.70;;;22.20;99.20;;;;;;4934087;29;20410;-63
2022/09/13 08:48:35;;;;;;;5.60;4.90;;;22.20;99.40;;;;;;4942679;29;20437;-62
2022/09/13 08:51:06;;;;;;;4.80;4.50;;;22.30;99.40;;;;;;4904099;29;20437;-63
2022/09/13 08:53:47;;;;;;;8.00;7.60;;;22.40;99.50;;;;;;4909103;29;20438;-62
2022/09/13 08:56:22;;;;;;;4.47;4.10;;;22.50;99.80;;;;;;4913104;29;20449;-63
2022/09/13 08:59:08;;;;;;;5.40;5.10;;;22.60;99.00;;;;;;4915158;29;20895;-63
2022/09/13 09:01:43;;;;;;;6.90;6.50;;;22.70;98.70;;;;;;4913860;29;20418;-63
2022/09/13 09:04:25;;;;;;;5.40;5.10;;;22.80;98.10;;;;;;4914527;29;20953;-63
2022/09/13 09:07:01;;;;;;;6.60;6.13;;;22.90;98.80;;;;;;4914643;29;20426;-62
2022/09/13 09:09:33;;;;;;;5.73;5.33;;;22.90;96.90;;;;;;4914002;29;20433;-63
2022/09/13 09:12:16;;;;;;;4.60;4.30;;;23.00;97.00;;;;;;4914450;29;20431;-62
2022/09/13 09:14:46;;;;;;;8.60;8.17;;;23.20;97.00;;;;;;4898709;29;20399;-62
2022/09/13 09:17:18;;;;;;;5.63;5.23;;;23.20;96.80;;;;;;4949770;28;20559;-68
2022/09/13 09:19:54;;;;;;;6.30;5.90;;;23.20;96.90;;;;;;4970414;28;20481;-62
2022/09/13 09:22:23;;;;;;;5.40;5.10;;;23.30;96.60;;;;;;4984724;28;20406;-62
2022/09/13 09:24:54;;;;;;;7.30;6.80;;;23.50;96.50;;;;;;4993451;28;20446;-62
2022/09/13 09:27:21;;;;;;;6.17;5.87;;;23.60;96.00;;;;;;4992865;28;20488;-62
2022/09/13 09:29:50;;;;;;;6.03;5.50;;;23.70;96.60;;;;;;4993385;28;20453;-63
2022/09/13 09:32:24;;;;;;;5.47;5.07;;;23.80;96.50;;;;;;4992774;28;20444;-63
2022/09/13 09:35:05;;;;;;;4.87;4.50;;;23.80;95.40;;;;;;4993082;28;20423;-63
2022/09/13 09:37:33;;;;;;;6.53;6.23;;;23.90;95.40;;;;;;4992682;28;20426;-62
2022/09/13 09:40:05;;;;;;;6.20;5.80;;;24.00;95.60;;;;;;4993248;28;20749;-62
2022/09/13 09:42:42;;;;;;;5.23;4.60;;;24.10;95.20;;;;;;4992733;28;20487;-62
2022/09/13 09:45:27;;;;;;;11.57;8.33;;;24.30;94.80;;;;;;5012191;28;20457;-62
2022/09/13 09:47:55;;;;;;;6.00;5.70;;;24.30;94.70;;;;;;5012480;28;20445;-62
2022/09/13 09:50:26;;;;;;;5.10;4.80;;;24.50;94.70;;;;;;5005963;28;20434;-62
2022/09/13 09:53:15;;;;;;;6.47;6.07;;;24.60;94.60;;;;;;4993359;28;20410;-62
2022/09/13 09:55:53;;;;;;;6.87;6.47;;;24.90;93.90;;;;;;4993194;28;20402;-62
2022/09/13 09:58:44;;;;;;;4.47;4.17;;;25.00;93.70;;;;;;4992508;28;20411;-62
2022/09/13 10:01:31;;;;;;;4.60;4.30;;;25.20;94.20;;;;;;4993216;28;20434;-62
2022/09/13 10:04:07;;;;;;;4.83;4.37;;;25.30;93.90;;;;;;4993182;28;20478;-62
2022/09/13 10:06:35;;;;;;;5.70;5.17;;;25.50;93.60;;;;;;4992570;28;20407;-62
2022/09/13 10:09:04;;;;;;;6.57;6.17;;;25.60;93.90;;;;;;4992873;28;20906;-62
2022/09/13 10:11:48;;;;;;;4.90;4.53;;;25.80;92.80;;;;;;4993158;28;20421;-63
2022/09/13 10:14:37;;;;;;;6.73;6.23;;;25.90;92.20;;;;;;5016117;28;20413;-62
2022/09/13 10:17:11;;;;;;;4.93;4.53;;;26.10;91.20;;;;;;5016272;28;20858;-62
2022/09/13 10:19:37;;;;;;;6.80;6.20;;;26.20;91.60;;;;;;5015457;28;20449;-62
2022/09/13 10:22:11;;;;;;;7.57;7.17;;;26.40;90.30;;;;;;5014809;28;20898;-62
2022/09/13 10:24:37;;;;;;;6.80;6.40;;;26.60;90.40;;;;;;5015622;28;20195;-62
2022/09/13 10:27:15;;;;;;;4.63;4.30;;;26.80;89.70;;;;;;5015959;28;20833;-62
2022/09/13 10:29:49;;;;;;;4.50;4.30;;;26.90;87.60;;;;;;5016243;28;20398;-62
2022/09/13 10:32:18;;;;;;;4.40;4.10;;;27.00;90.60;;;;;;5016090;28;20481;-62
2022/09/13 10:34:46;;;;;;;5.30;4.90;;;27.10;87.80;;;;;;5016029;28;20410;-62
2022/09/13 10:37:19;;;;;;;6.17;5.57;;;27.20;86.20;;;;;;5016110;28;20441;-62
2022/09/13 10:40:07;;;;;;;7.60;7.10;;;27.30;84.70;;;;;;5014398;28;20437;-62
2022/09/13 10:42:33;;;;;;;5.00;4.70;;;27.30;84.60;;;;;;5015437;28;20390;-62
2022/09/13 10:45:02;;;;;;;7.80;7.40;;;27.30;86.50;;;;;;4998174;28;20453;-62
2022/09/13 10:47:37;;;;;;;5.17;4.90;;;27.40;86.50;;;;;;5015020;28;20449;-62
2022/09/13 10:50:21;;;;;;;6.33;5.83;;;27.50;84.30;;;;;;5015579;28;20409;-62
2022/09/13 10:52:49;;;;;;;7.63;7.20;;;27.70;83.70;;;;;;5015683;28;20882;-62
2022/09/13 10:55:17;;;;;;;5.30;4.90;;;27.80;82.50;;;;;;5015689;28;20427;-62
2022/09/13 10:57:53;;;;;;;4.90;4.60;;;27.90;82.10;;;;;;4998362;28;20758;-62
2022/09/13 11:00:31;;;;;;;5.80;5.40;;;27.90;80.50;;;;;;5014960;28;20484;-62
2022/09/13 11:03:18;;;;;;;4.37;4.07;;;27.80;79.80;;;;;;4998113;28;20481;-62
2022/09/13 11:05:44;;;;;;;4.20;3.97;;;27.80;80.50;;;;;;5015088;28;20914;-62
2022/09/13 11:08:28;;;;;;;6.17;4.90;;;27.70;80.60;;;;;;5013574;28;20432;-62
2022/09/13 11:10:54;;;;;;;4.73;4.43;;;27.60;81.20;;;;;;5015194;28;20705;-62
2022/09/13 11:13:35;;;;;;;4.80;4.50;;;27.50;82.90;;;;;;5014825;28;20406;-62
2022/09/13 11:16:39;;;;;;;5.13;4.47;;;27.50;81.70;;;;;;5014991;28;20697;-62
2022/09/13 11:19:42;;;;;;;5.80;5.50;;;27.40;82.30;;;;;;5014811;28;20512;-62
2022/09/13 11:22:10;;;;;;;4.83;4.53;;;27.40;80.90;;;;;;4997749;28;20390;-62
2022/09/13 11:24:54;;;;;;;4.70;4.50;;;27.40;82.20;;;;;;5012626;28;20453;-62
2022/09/13 11:27:44;;;;;;;5.03;4.73;;;27.50;84.50;;;;;;5014641;28;20448;-65
2022/09/13 11:30:21;;;;;;;5.00;4.70;;;27.60;82.00;;;;;;5015240;28;20413;-62
2022/09/13 11:33:12;;;;;;;4.40;4.20;;;27.70;83.30;;;;;;5014994;28;20405;-62
2022/09/13 11:36:11;;;;;;;4.23;4.03;;;27.90;81.60;;;;;;5014284;28;20453;-62
2022/09/13 11:39:01;;;;;;;4.90;4.60;;;28.10;78.60;;;;;;5014337;28;20418;-62
2022/09/13 11:41:42;;;;;;;4.53;4.20;;;28.30;79.20;;;;;;5014271;28;20406;-62
2022/09/13 11:44:25;;;;;;;3.90;3.70;;;28.40;81.60;;;;;;5014859;28;20762;-62
2022/09/13 11:47:30;;;;;;;3.83;3.63;;;28.50;77.30;;;;;;5014773;28;20398;-62
2022/09/13 11:50:24;;;;;;;5.67;4.37;;;28.70;78.10;;;;;;4960593;28;20414;-62
2022/09/13 11:53:09;;;;;;;4.70;4.40;;;28.90;72.80;;;;;;5007726;28;20427;-62
2022/09/13 11:55:56;;;;;;;3.60;3.40;;;29.00;72.60;;;;;;4994528;28;20407;-62
2022/09/13 11:58:33;;;;;;;6.30;5.87;;;29.00;73.90;;;;;;4994462;28;20397;-67
2022/09/13 12:01:05;;;;;;;3.90;3.70;;;29.10;72.30;;;;;;4994859;28;20394;-62
2022/09/13 12:03:54;;;;;;;3.80;3.60;;;29.20;71.20;;;;;;4993944;28;20399;-62
2022/09/13 12:06:27;;;;;;;5.40;5.00;;;29.10;71.20;;;;;;4994269;28;20440;-62
2022/09/13 12:09:01;;;;;;;5.30;4.60;;;29.00;72.00;;;;;;4994587;28;20411;-62
2022/09/13 12:11:35;;;;;;;4.33;3.93;;;29.00;72.70;;;;;;4994026;28;20401;-62
2022/09/13 12:14:05;;;;;;;3.67;3.47;;;29.00;72.50;;;;;;4994452;28;20805;-62
2022/09/13 12:16:39;;;;;;;3.67;3.47;;;28.90;72.00;;;;;;4991635;28;20494;-62
2022/09/13 12:19:15;;;;;;;5.13;4.30;;;28.90;71.60;;;;;;4992304;28;20910;-62
2022/09/13 12:21:43;;;;;;;4.80;4.60;;;28.80;72.10;;;;;;4990011;28;21142;-62
2022/09/13 12:24:31;;;;;;;6.40;6.10;;;28.80;72.30;;;;;;4990958;28;20869;-62
2022/09/13 12:27:25;;;;;;;3.73;3.20;;;28.70;71.10;;;;;;4989770;28;20442;-62
2022/09/13 12:30:13;;;;;;;6.90;6.50;;;28.70;70.90;;;;;;4991841;28;20431;-62
2022/09/13 12:32:40;;;;;;;6.97;6.67;;;28.60;74.70;;;;;;4990427;28;20488;-62
2022/09/13 12:35:27;;;;;;;4.53;4.30;;;28.50;74.00;;;;;;4991035;28;20789;-63
2022/09/13 12:38:15;;;;;;;5.83;5.53;;;28.40;72.90;;;;;;4989030;28;20444;-62
2022/09/13 12:41:17;;;;;;;7.10;6.70;;;28.30;75.00;;;;;;4991297;28;20910;-62
2022/09/13 12:44:05;;;;;;;5.10;4.23;;;28.20;75.60;;;;;;4991395;28;20558;-62
2022/09/13 12:46:54;;;;;;;3.90;3.70;;;28.10;76.00;;;;;;4991294;28;20418;-62
2022/09/13 12:49:23;;;;;;;5.03;4.20;;;28.00;76.80;;;;;;4994022;28;20449;-62
2022/09/13 12:52:21;;;;;;;6.13;5.63;;;28.00;77.30;;;;;;4991135;28;20501;-62
2022/09/13 12:55:02;;;;;;;5.20;4.80;;;27.90;79.50;;;;;;4990877;28;20415;-62
2022/09/13 12:57:33;;;;;;;5.80;5.30;;;27.80;78.40;;;;;;4991023;28;20415;-63
2022/09/13 13:00:29;;;;;;;7.43;7.00;;;27.70;77.70;;;;;;4990444;28;20440;-62
2022/09/13 13:03:07;;;;;;;4.70;4.33;;;27.60;78.70;;;;;;4991656;28;20768;-63
2022/09/13 13:05:41;;;;;;;7.23;6.93;;;27.60;80.40;;;;;;4990684;28;20509;-62
2022/09/13 13:08:29;;;;;;;7.30;6.90;;;27.50;79.20;;;;;;4991390;28;20438;-62
2022/09/13 13:11:10;;;;;;;4.50;4.30;;;27.50;79.40;;;;;;4991155;28;20395;-62
2022/09/13 13:13:45;;;;;;;10.07;9.17;;;27.50;78.70;;;;;;4990759;28;20399;-62
2022/09/13 13:16:32;;;;;;;6.30;5.70;;;27.50;78.20;;;;;;4976324;28;20470;-62
2022/09/13 13:19:29;;;;;;;4.67;4.27;;;27.40;78.90;;;;;;4991132;28;20415;-63